Allen Springs, Kentucky
Current Conditions -  °F | °C
As of 3:53 PM on Friday 19 Dec 2014 (Local Time) from KBWG Reporting Station
Clear Clear  
Wind Chill:   Ceiling: Unl
Heat Index:   Visibility: 10mi
Dew Point: -4°   Wind: 5mph
Humidity: 55%   Direction: 10°N
Pressure: 30.25"   Gusts: NA
Location:  36.8592°N, 86.3531°W
Report Text: KBWG 192153Z AUTO 01004KT 10SM CLR 04/M04 A3025 RMK AO2 SLP248 T00441039
Loading
Personal Weather Stations






























Interactive Weather Map New forecast layout! Learn more

10-Day Weather Forecast

Advertisements
Track Severe Weather on mobile